Miami, Florida
Traffic Map
Current Weather Conditions
Miami, Florida
Scattered Clouds
Scattered Clouds
25°
Feels Like: 26°
Wind Chill: 25° Ceiling: Unl
Heat Index: 26° Visibility: 10mi
Dew Point: 22° Wind: 0mph
Humidity: 82% Direction: ° ()
Pressure: 30.07in Gusts: 0mph
Raw Report DataKMIA 040953Z 00000KT 10SM FEW025 SCT250 25/22 A3007 RMK AO2 SLP182 T02500217
Traffic Incident Summary
Active as of:
Severity:
Category:
InformationThere was an issue retrieving the traffic information for this location. Please try a different location or try again shortly.
Advertisements
Track Severe Weather on mobile